Timeline UpdatesTrip UpdatesNews PostsPvt PostsTravel TipsAdmin PostsConv PostsFollowed PostsChat RequestsBlog PostsPNR Posts

Disclaimer
Search
 
 
Tue Sep 30, 2014 19:22:03 ISTHomeTrainsΣChainsAtlasPNRForumGalleryNewsFAQTripsMembersLoginFeedback
Latest...
.
Fri Mar 14, 2014 (07:42PM)
⇐ Return Journey: Train# 16210

16209/Ajmer-Mysore Express

Time-Table HAS CHANGED.
Sep 01 (4:54PM)
Change Departure Station:
Change Arrival Station:
Post a Train Travel TipPost a Train Travel Tip **new
Post a Comment/Question/Picture/VideoPost a Comment/Question/Picture/Video
Pantry/Catering
✓ Pantry Car Avbl
✓ Catering Avbl
RSA - Rake Sharing
16217/16218 Mysore-Shirdi Express
Rake/Coach Composition
LOCO-SLR-GEN-S13-S12-S11-S10-S9-S8-S7-S6-S5-S4-PC-S3-S2-S1-B2-B1-A2-A1-GEN-GEN-SLR; Total 23 coaches
Loco
Ubl wdp4/4b
News    PNR    Forum    Time-Table    Availability    Fare Chart    Map    Arr/Dep History    Trips    Gallery    ΣChains    X/O    Timeline    
Travel Time: 3h 35m    2 halts    Distance: 160 km    Avg Speed: 44 km/hr
Type: Mail/Express
Zone: SWR/South Western
Departs @ 23:05 (Avg 34m late)
Platform# ???
 M    S
Arsikere Junction/ASK 
Arrives @ 02:40 +1 night (Avg 4m late)
Platform# ???
S T    
Yesvantpur Junction/YPR 

2 halts. 25 intermediate Stations between Arsikere Junction and Yesvantpur Junction

Show ALL intermediate Stations  Show Old Time-Table

#CodeStation NameX/OArrivesAvgDepartsAvgHaltPFDay#KmSpeedElevZoneAddress
1AIIAjmer Junction (5)  -05:35+011-1988.275464mNWRPin: 305001, Rajasthan
2BERBeawar (2)  06:17+1806:19+182m--1-1936.065447mNWRBeawar, Rajasthan
3SODSojat Road (2)  07:18 07:20+2007:20 07:22+202m11-1869.560295mNWRSojat Road, Rajasthan
4MJMarwar Junction (4)  07:43+1807:45+202m61-1848.680267mNWRMarwar Junction, Rajasthan
5FAFalna (2)  08:34 08:35+2908:36 08:37+292m--1-1782.169282mNWRFalna, Rajasthan
6SOHSirohi Road (2)  09:25+2709:27+272m--1-1727.168369mNWRPindwara, Rajasthan
7ABRAbu Road (3)X  10:06+3010:25+2119m21-1683.238264mNWRSirohi Dist, Rajasthan
8PNUPalanpur Junction (5)X  11:48+511:50+132m11-1630.652216mWRPalanpur, Gujarat
9MSHMahesana Junction (6)  13:05+1313:07+172m21-1565.65395mWRMehsana, Gujarat
10ADIAhmedabad Junction (12)  14:30+714:50+720m41-1492.65451mWRAhmedabad, Gujarat
11NDNadiad Junction (4)  15:41+3115:43+312m--1-1447.16237mWRNadiad, Gujarat
12ANNDAnand Junction (6)X  16:01+3616:03+372m--1-1428.65144mWRAnand, Gujarat
13BRCVadodara Junction (7)X  16:42 16:45+3516:52 16:55+3610m11-1392.88536mWRVadodara 390005, Gujarat
14BHBharuch Junction (5)X  17:39 17:45+1917:41 17:47+192m41-1322.34619mWRBharuch, Gujarat
15STSurat (4)X  19:05+2419:15+2310m21-1263.06119mWRSurat 395001, Gujarat
16BLValsad (3)X  20:23+2820:25+312m--1-1194.36615mWRValsad, Gujarat
17VAPIVapi (3)  20:49+3320:51+332m--1-1168.14427mWRVapi, Gujarat
18BSRVasai Road (7)X  23:35+023:40 23:45+35 10m51-1047.0637mWRVasai 401202, Maharashtra
19BIRDBhiwandi Road (4)  00:11+800:13+82m--2-1019.72226mCRBhiwandi, Maharashtra
20KYNKalyan Junction (8)  01:05 01:02+201:10 01:05+105 3m62-1001.75310mCRKalyan 421301, Maharashtra
21KJTKarjat Junction (4)  02:08 01:58+1002:10 02:00+152m12-954.94057mCRKarjat, Maharashtra
22LNLLonavala (3)  02:58 02:43+803:00 02:45+102m12-926.245623mCRLonavala 410401, Maharashtra
23PUNEPune Junction (6)X  04:10+004:20+510m22-862.651556mCRPune 411001, Maharashtra
24STRSatara (3)  07:10+1907:13+193m12-716.964637mCRSatara, Maharashtra
25KRDKarad (3)  08:08+2208:10+242m12-658.253597mCRDist- Satara., Maharashtra
26SLISangli (3)X  09:27+909:30+153m32-590.37559mCRSangli, Maharashtra
27MRJMiraj Junction (6)  10:30+010:35+05m12-583.048554mCRMiraj 416410, Maharashtra
28BGMBelgaum (3)  13:25+2113:30+225m22-445.668752mSWRBelgaum 590001, Karnataka
29LDLonda Junction (3)  14:15+3914:17+412m12-394.334643mSWRLonda, Karnataka
30DWRDharwad (4)X  16:20+1216:25+145m22-323.818737mSWRDharwad 580001, Karnataka
31UBLHubli Junction (5)  17:30-117:40+210m12-303.858640mSWRHubli - 580020, Karnataka
32HVRHaveri (3)  18:50 18:58+1718:52 19:00+172m--2-228.770558mSWRHaveri, Karnataka
33RNRRanibennur (3)  19:26 19:28+3819:28 19:30+382m--2-196.142583mSWRRanebennur, Karnataka
34HRRHarihar (3)  20:05 20:03+3020:10 20:05+355 2m--2-172.845553mSWRHarihar, Karnataka
35DVGDavangere (2)  20:24 20:22+3120:27 20:25+303m--2-160.067598mSWRDavanagere, Karnataka
36RRBBirur Junction (3)  22:08+3322:10+332m--2-45.054802mSWRBirur, Karnataka
37ASKArsikere Junction (3)»X  23:00+3123:05+345m--20.055816mSWRArsikere, Karnataka
38TTRTiptur (4)X  23:33+3023:35+302m1225.543860mSWRTiptur, Karnataka
39TKTumkur (3)  01:28 01:13+2101:30 01:15+212m1396.545823mSWRTumkur, Karnataka
40YPRYesvantpur Junction (6)•  02:55 02:40+403:00 02:45+115m--3160.521919mSWRBengaluru 560022, Karnataka
41MWMMalleswaram (2)  03:08 02:53-03:10 02:55-2m--3163.38916mSWRBengaluru, Karnataka
42SBCBangalore City Junction (10)  03:15+1003:45 03:30+1130 15m83166.172903mSWRBengaluru-560023, Karnataka
43MYAMandya (3)  05:08 04:48+2505:10 04:50+242m--3259.138672mSWRMandya, Karnataka
44MYSMysore Junction (6)  06:20 06:00+21-43303.3-760mSWRTel No 0821-2521751.URL: www.mysorerailwaystation.in, Karnataka
Scroll to Top
Scroll to Bottom